createdAt,value
2022-10-21T00:01:59.295Z,99.25
2022-10-21T00:32:29.103Z,99.81
2022-10-21T00:43:59.363Z,99.99
2022-10-21T00:46:31.099Z,100.00
2022-10-21T00:49:02.093Z,100.00
2022-10-21T00:51:29.388Z,100.00
2022-10-21T00:53:56.278Z,100.00
2022-10-21T00:56:28.635Z,100.00
2022-10-21T00:58:58.297Z,100.00
2022-10-21T01:01:26.031Z,100.00
2022-10-21T01:03:56.200Z,100.00
2022-10-21T01:06:25.728Z,100.00
2022-10-21T01:08:54.826Z,100.00
2022-10-21T01:11:23.959Z,100.00
2022-10-21T01:17:40.230Z,100.00
2022-10-21T01:20:53.027Z,100.00
2022-10-21T01:50:24.528Z,100.00
2022-10-21T02:16:47.366Z,100.00
2022-10-21T02:22:00.052Z,100.00
2022-10-21T02:24:52.727Z,100.00
2022-10-21T02:27:21.435Z,100.00
2022-10-21T02:35:37.912Z,100.00
2022-10-21T02:38:24.014Z,100.00
2022-10-21T02:41:02.674Z,100.00
2022-10-21T03:21:24.648Z,100.00
2022-10-21T03:24:15.563Z,100.00
2022-10-21T03:26:55.313Z,100.00
2022-10-21T03:29:29.847Z,100.00
2022-10-21T03:54:37.876Z,100.00
2022-10-21T03:57:04.820Z,100.00
2022-10-21T03:59:31.597Z,99.93
2022-10-21T04:15:29.154Z,99.64
2022-10-21T04:17:56.352Z,99.91
2022-10-21T04:20:23.939Z,99.69
2022-10-21T04:22:50.925Z,99.86
2022-10-21T04:25:17.840Z,99.74
2022-10-21T04:30:28.514Z,99.82
2022-10-21T04:32:55.422Z,99.83
2022-10-21T04:35:25.387Z,99.82
2022-10-21T04:37:52.275Z,99.73
2022-10-21T04:40:19.132Z,99.85
2022-10-21T04:42:50.470Z,99.60
2022-10-21T04:45:18.532Z,99.63
2022-10-21T04:47:45.438Z,99.85
2022-10-21T04:50:12.492Z,99.69
2022-10-21T04:52:40.083Z,99.72
2022-10-21T04:55:07.630Z,99.82
2022-10-21T04:57:34.636Z,99.77
2022-10-21T05:00:02.241Z,99.79
2022-10-21T05:02:29.052Z,99.84
2022-10-21T05:04:55.918Z,99.82
2022-10-21T05:07:22.826Z,99.58
2022-10-21T05:09:49.679Z,99.64
2022-10-21T05:12:16.521Z,99.83
2022-10-21T05:14:43.352Z,99.67
2022-10-21T05:17:11.293Z,99.61
2022-10-21T05:19:38.840Z,99.57
2022-10-21T05:22:09.737Z,99.74
2022-10-21T05:24:41.274Z,99.55
2022-10-21T05:27:11.345Z,99.80
2022-10-21T05:29:39.558Z,99.76
2022-10-21T05:34:43.836Z,99.82
2022-10-21T05:37:11.134Z,99.83
2022-10-21T05:39:38.156Z,99.83
2022-10-21T05:42:05.059Z,99.79
2022-10-21T05:44:35.087Z,99.79
2022-10-21T05:47:02.584Z,99.81
2022-10-21T05:49:29.752Z,99.73
2022-10-21T05:51:56.907Z,99.51
2022-10-21T05:54:23.927Z,99.43
2022-10-21T05:56:50.961Z,99.56
2022-10-21T05:59:18.098Z,99.40
2022-10-21T06:01:45.468Z,99.26
2022-10-21T06:04:15.550Z,99.40
2022-10-21T06:06:42.489Z,99.35
2022-10-21T06:09:09.622Z,99.23
2022-10-21T06:11:36.503Z,99.27
2022-10-21T06:14:03.656Z,99.37
2022-10-21T06:16:30.628Z,99.33
2022-10-21T06:18:57.538Z,99.37
2022-10-21T06:21:24.514Z,99.46
2022-10-21T06:23:54.024Z,99.48
2022-10-21T06:26:21.447Z,99.44
2022-10-21T06:28:48.460Z,99.60
2022-10-21T06:31:19.106Z,99.63
2022-10-21T06:33:46.107Z,99.70
2022-10-21T06:36:13.120Z,99.92
2022-10-21T06:38:40.268Z,99.86
2022-10-21T06:41:13.018Z,99.86
2022-10-21T06:43:41.391Z,99.92
2022-10-21T06:46:16.640Z,99.92
2022-10-21T06:48:43.964Z,100.00
2022-10-21T06:51:15.339Z,100.00
2022-10-21T06:53:43.574Z,100.00
2022-10-21T06:56:19.333Z,100.00
2022-10-21T06:58:48.293Z,100.00
2022-10-21T07:01:34.290Z,100.00
2022-10-21T07:04:04.652Z,100.00
2022-10-21T07:08:59.290Z,100.00
2022-10-21T07:11:28.046Z,100.00
2022-10-21T07:13:55.732Z,100.00
2022-10-21T07:16:34.618Z,100.00
2022-10-21T07:19:01.578Z,100.00
2022-10-21T07:21:30.839Z,100.00
2022-10-21T07:23:59.663Z,100.00
2022-10-21T07:26:29.401Z,100.00
2022-10-21T07:28:58.581Z,100.00
2022-10-21T07:31:26.068Z,100.00
2022-10-21T07:33:53.945Z,100.00
2022-10-21T07:36:26.592Z,100.00
2022-10-21T07:38:55.453Z,100.00
2022-10-21T07:41:25.803Z,100.00
2022-10-21T07:43:53.992Z,100.00
2022-10-21T07:46:21.926Z,100.00
2022-10-21T07:48:49.857Z,100.00
2022-10-21T07:51:20.637Z,100.00
2022-10-21T07:53:51.088Z,100.00
2022-10-21T07:56:21.295Z,100.00
2022-10-21T07:58:48.605Z,100.00
2022-10-21T08:01:17.193Z,100.00
2022-10-21T08:03:44.378Z,100.00
2022-10-21T08:06:12.984Z,100.00
2022-10-21T08:08:40.673Z,100.00
2022-10-21T08:11:08.882Z,100.00
2022-10-21T08:13:36.659Z,100.00
2022-10-21T08:16:05.448Z,100.00
2022-10-21T08:18:33.391Z,100.00
2022-10-21T08:21:04.393Z,100.00
2022-10-21T08:23:31.531Z,100.00
2022-10-21T08:26:01.045Z,100.00
2022-10-21T08:28:30.295Z,100.00
2022-10-21T08:31:08.199Z,100.00
2022-10-21T08:33:35.550Z,100.00
2022-10-21T08:36:15.224Z,100.00
2022-10-21T08:38:42.472Z,100.00
2022-10-21T08:41:30.522Z,100.00
2022-10-21T08:44:41.788Z,100.00
2022-10-21T08:47:21.212Z,100.00
2022-10-21T08:50:14.298Z,100.00
2022-10-21T08:52:49.217Z,100.00
2022-10-21T08:55:31.023Z,100.00
2022-10-21T08:57:58.095Z,100.00
2022-10-21T09:00:31.416Z,100.00
2022-10-21T09:03:01.500Z,100.00
2022-10-21T09:06:12.341Z,100.00
2022-10-21T09:09:06.954Z,100.00
2022-10-21T09:12:08.813Z,100.00
2022-10-21T09:15:10.336Z,100.00
2022-10-21T09:18:03.138Z,100.00
2022-10-21T09:20:38.999Z,100.00
2022-10-21T09:23:26.042Z,100.00
2022-10-21T09:26:08.217Z,100.00
2022-10-21T09:28:36.640Z,100.00
2022-10-21T09:31:21.545Z,100.00
2022-10-21T09:33:59.617Z,100.00
2022-10-21T09:36:37.996Z,100.00
2022-10-21T09:39:14.730Z,100.00
2022-10-21T09:41:45.434Z,100.00
2022-10-21T09:44:19.955Z,100.00
2022-10-21T09:46:49.262Z,100.00
2022-10-21T09:52:37.941Z,100.00
2022-10-21T09:55:14.154Z,100.00
2022-10-21T09:57:54.564Z,100.00
2022-10-21T10:00:21.863Z,100.00
2022-10-21T10:02:49.568Z,100.00
2022-10-21T10:05:38.641Z,100.00
2022-10-21T10:08:41.385Z,100.00
2022-10-21T10:11:11.617Z,100.00
2022-10-21T10:13:42.487Z,100.00
2022-10-21T10:16:24.380Z,100.00
2022-10-21T10:19:10.123Z,100.00
2022-10-21T10:21:37.629Z,100.00
2022-10-21T10:24:05.611Z,100.00
2022-10-21T10:26:35.355Z,100.00
2022-10-21T10:29:23.242Z,100.00
2022-10-21T10:31:55.073Z,100.00
2022-10-21T10:34:27.203Z,100.00
2022-10-21T10:37:03.281Z,100.00
2022-10-21T10:39:34.211Z,100.00
2022-10-21T10:42:03.064Z,100.00
2022-10-21T10:44:41.364Z,100.00
2022-10-21T10:47:18.500Z,100.00
2022-10-21T10:49:45.756Z,100.00
2022-10-21T10:52:12.861Z,100.00
2022-10-21T10:54:41.476Z,100.00
2022-10-21T10:57:19.169Z,100.00
2022-10-21T10:59:52.562Z,100.00
2022-10-21T11:02:27.874Z,100.00
2022-10-21T11:05:06.801Z,100.00
2022-10-21T11:07:45.111Z,100.00
2022-10-21T11:10:27.727Z,100.00
2022-10-21T11:12:54.867Z,100.00
2022-10-21T11:15:28.563Z,100.00
2022-10-21T11:18:24.104Z,100.00
2022-10-21T11:20:56.818Z,100.00
2022-10-21T11:23:38.401Z,100.00
2022-10-21T11:26:23.045Z,100.00
2022-10-21T11:29:16.514Z,100.00
2022-10-21T11:32:11.076Z,100.00
2022-10-21T11:35:20.661Z,100.00
2022-10-21T11:38:16.655Z,100.00
2022-10-21T11:40:50.547Z,100.00
2022-10-21T11:43:45.590Z,99.90
2022-10-21T11:46:29.804Z,99.68
2022-10-21T11:49:11.827Z,99.52
2022-10-21T11:52:05.989Z,99.20
2022-10-21T11:55:08.277Z,98.64
2022-10-21T11:57:56.557Z,98.33
2022-10-21T12:00:25.640Z,98.35
2022-10-21T12:03:11.211Z,97.56
2022-10-21T12:05:48.856Z,97.06
2022-10-21T12:11:12.504Z,96.37
2022-10-21T12:13:42.363Z,95.66
2022-10-21T12:16:13.427Z,95.40
2022-10-21T12:18:48.818Z,95.66
2022-10-21T12:21:18.445Z,94.94
2022-10-21T12:23:52.149Z,94.48
2022-10-21T12:26:28.888Z,94.34
2022-10-21T12:29:12.755Z,93.98
2022-10-21T12:31:56.290Z,94.48
2022-10-21T12:34:24.489Z,94.54
2022-10-21T12:36:54.429Z,94.87
2022-10-21T12:39:33.478Z,94.76
2022-10-21T12:42:19.592Z,95.23
2022-10-21T12:44:49.544Z,95.09
2022-10-21T12:47:32.070Z,95.02
2022-10-21T12:50:14.511Z,94.87
2022-10-21T12:52:46.379Z,94.95
2022-10-21T12:55:25.913Z,94.67
2022-10-21T12:58:00.261Z,94.48
2022-10-21T13:00:30.117Z,94.55
2022-10-21T13:03:05.276Z,94.75
2022-10-21T13:05:38.485Z,94.53
2022-10-21T13:08:23.097Z,94.77
2022-10-21T13:11:05.254Z,95.02
2022-10-21T13:13:45.716Z,94.82
2022-10-21T13:16:18.854Z,94.95
2022-10-21T13:18:59.414Z,94.95
2022-10-21T13:21:48.743Z,95.05
2022-10-21T13:24:25.674Z,95.04
2022-10-21T13:27:01.710Z,94.76
2022-10-21T13:29:37.159Z,94.88
2022-10-21T13:32:14.003Z,95.29
2022-10-21T13:35:03.236Z,95.10
2022-10-21T13:37:35.217Z,94.31
2022-10-21T13:40:16.030Z,94.57
2022-10-21T13:42:54.020Z,94.20
2022-10-21T13:45:42.809Z,94.19
2022-10-21T13:48:15.964Z,93.80
2022-10-21T13:50:45.981Z,93.03
2022-10-21T13:53:19.077Z,92.68
2022-10-21T13:55:56.467Z,92.54
2022-10-21T13:58:24.829Z,92.93
2022-10-21T14:00:57.816Z,92.56
2022-10-21T14:03:26.719Z,90.85
2022-10-21T14:05:59.139Z,89.46
2022-10-21T14:08:33.277Z,88.49
2022-10-21T14:11:05.326Z,88.31
2022-10-21T14:13:36.189Z,88.63
2022-10-21T14:16:04.987Z,88.85
2022-10-21T14:18:37.421Z,89.04
2022-10-21T14:21:06.490Z,89.04
2022-10-21T14:23:34.897Z,88.37
2022-10-21T14:26:06.398Z,88.99
2022-10-21T14:28:34.663Z,89.34
2022-10-21T14:31:02.923Z,88.88
2022-10-21T14:33:30.257Z,88.41
2022-10-21T14:36:23.517Z,88.17
2022-10-21T14:38:50.390Z,87.71
2022-10-21T14:41:22.997Z,88.64
2022-10-21T14:43:52.752Z,88.02
2022-10-21T14:46:20.887Z,88.11
2022-10-21T14:48:53.633Z,87.87
2022-10-21T14:51:22.851Z,88.53
2022-10-21T14:53:59.356Z,88.58
2022-10-21T14:56:35.638Z,88.64
2022-10-21T14:59:24.493Z,89.06
2022-10-21T15:01:52.318Z,89.33
2022-10-21T15:04:58.394Z,89.36
2022-10-21T15:07:38.171Z,89.85
2022-10-21T15:10:05.124Z,89.99
2022-10-21T15:12:53.024Z,89.92
2022-10-21T15:15:49.743Z,90.10
2022-10-21T15:18:24.034Z,90.17
2022-10-21T15:21:04.380Z,90.51
2022-10-21T15:23:35.304Z,90.69
2022-10-21T15:26:10.559Z,90.40
2022-10-21T15:28:38.005Z,90.66
2022-10-21T15:31:08.660Z,90.79
2022-10-21T15:33:35.532Z,91.09
2022-10-21T15:36:10.314Z,91.49
2022-10-21T15:38:44.671Z,91.96
2022-10-21T15:41:15.608Z,91.71
2022-10-21T15:43:44.491Z,92.14
2022-10-21T15:46:12.227Z,91.94
2022-10-21T15:48:39.105Z,92.16
2022-10-21T15:51:06.205Z,92.31
2022-10-21T15:53:33.156Z,92.19
2022-10-21T15:56:01.049Z,92.61
2022-10-21T15:58:27.937Z,92.52
2022-10-21T16:00:55.125Z,92.40
2022-10-21T16:03:23.059Z,92.44
2022-10-21T16:05:50.985Z,92.54
2022-10-21T16:08:17.943Z,92.73
2022-10-21T16:10:47.987Z,92.76
2022-10-21T16:13:15.524Z,92.86
2022-10-21T16:15:42.573Z,92.88
2022-10-21T16:18:14.388Z,93.06
2022-10-21T16:20:43.028Z,93.21
2022-10-21T16:23:10.791Z,93.08
2022-10-21T16:25:37.636Z,93.05
2022-10-21T16:28:05.107Z,93.39
2022-10-21T16:30:37.235Z,93.14
2022-10-21T16:33:04.267Z,93.07
2022-10-21T16:35:31.690Z,93.14
2022-10-21T16:37:58.793Z,93.16
2022-10-21T16:40:35.511Z,93.02
2022-10-21T16:43:02.298Z,93.27
2022-10-21T16:45:31.177Z,93.38
2022-10-21T16:48:00.625Z,93.31
2022-10-21T16:50:44.029Z,93.50
2022-10-21T16:53:16.765Z,93.39
2022-10-21T16:55:43.842Z,93.30
2022-10-21T16:58:10.856Z,93.48
2022-10-21T17:00:37.767Z,93.47
2022-10-21T17:03:04.998Z,93.71
2022-10-21T17:05:31.966Z,93.37
2022-10-21T17:08:00.189Z,93.71
2022-10-21T17:10:27.198Z,93.70
2022-10-21T17:12:59.040Z,93.73
2022-10-21T17:15:27.816Z,93.67
2022-10-21T17:17:54.920Z,93.68
2022-10-21T17:20:21.918Z,93.73
2022-10-21T17:22:48.777Z,93.75
2022-10-21T17:25:15.835Z,93.86
2022-10-21T17:27:42.993Z,93.79
2022-10-21T17:30:10.676Z,93.79
2022-10-21T17:32:37.640Z,93.83
2022-10-21T17:35:04.755Z,93.83
2022-10-21T17:37:31.644Z,93.91
2022-10-21T17:39:58.657Z,94.04
2022-10-21T17:42:25.592Z,93.98
2022-10-21T17:44:52.943Z,94.17
2022-10-21T17:47:19.842Z,94.23
2022-10-21T17:49:46.744Z,94.22
2022-10-21T17:52:16.410Z,94.33
2022-10-21T17:54:43.384Z,94.63
2022-10-21T17:57:11.464Z,94.64
2022-10-21T17:59:38.415Z,94.79
2022-10-21T18:02:05.335Z,94.95
2022-10-21T18:04:33.624Z,94.92
2022-10-21T18:07:00.505Z,94.87
2022-10-21T18:09:27.562Z,95.02
2022-10-21T18:11:54.596Z,94.95
2022-10-21T18:14:21.538Z,95.03
2022-10-21T18:16:48.498Z,95.15
2022-10-21T18:19:16.875Z,95.74
2022-10-21T18:21:43.874Z,95.51
2022-10-21T18:24:12.584Z,95.49
2022-10-21T18:26:40.232Z,95.58
2022-10-21T18:29:07.170Z,95.57
2022-10-21T18:31:37.470Z,95.47
2022-10-21T18:34:05.971Z,95.45
2022-10-21T18:36:34.417Z,95.51
2022-10-21T18:39:01.585Z,95.39
2022-10-21T18:41:28.814Z,95.06
2022-10-21T18:44:02.124Z,95.15
2022-10-21T18:46:30.110Z,95.37
2022-10-21T18:48:57.688Z,95.04
2022-10-21T18:51:24.801Z,95.26
2022-10-21T18:53:52.953Z,95.26
2022-10-21T18:56:22.218Z,95.31
2022-10-21T18:58:50.061Z,95.40
2022-10-21T19:01:18.285Z,95.32
2022-10-21T19:03:45.680Z,95.34
2022-10-21T19:06:32.193Z,95.31
2022-10-21T19:09:03.963Z,95.70
2022-10-21T19:11:31.346Z,95.52
2022-10-21T19:13:58.405Z,95.63
2022-10-21T19:16:25.309Z,95.78
2022-10-21T19:18:53.583Z,96.08
2022-10-21T19:21:21.625Z,96.07
2022-10-21T19:23:48.581Z,96.22
2022-10-21T19:26:17.858Z,96.31
2022-10-21T19:28:47.712Z,96.13
2022-10-21T19:31:15.967Z,96.29
2022-10-21T19:33:44.152Z,96.25
2022-10-21T19:36:11.926Z,96.52
2022-10-21T19:38:44.042Z,96.43
2022-10-21T19:41:15.700Z,96.49
2022-10-21T19:43:42.877Z,96.53
2022-10-21T19:46:14.630Z,96.65
2022-10-21T19:48:41.572Z,96.72
2022-10-21T19:51:15.129Z,96.67
2022-10-21T19:53:44.073Z,96.69
2022-10-21T19:56:11.809Z,96.74
2022-10-21T19:58:43.762Z,96.73
2022-10-21T20:01:12.541Z,96.74
2022-10-21T20:03:41.118Z,96.93
2022-10-21T20:06:09.719Z,96.71
2022-10-21T20:08:37.421Z,96.74
2022-10-21T20:11:26.195Z,96.98
2022-10-21T20:13:53.457Z,96.73
2022-10-21T20:16:28.949Z,96.89
2022-10-21T20:18:56.843Z,96.94
2022-10-21T20:21:25.245Z,96.97
2022-10-21T20:23:52.534Z,96.86
2022-10-21T20:26:20.487Z,96.92
2022-10-21T20:28:47.420Z,96.96
2022-10-21T20:31:16.380Z,97.06
2022-10-21T20:33:47.241Z,97.04
2022-10-21T20:36:21.591Z,97.01
2022-10-21T20:38:50.494Z,96.95
2022-10-21T20:41:23.388Z,96.99
2022-10-21T20:43:51.379Z,96.74
2022-10-21T20:46:20.483Z,96.88
2022-10-21T20:48:49.524Z,96.77
2022-10-21T20:51:19.793Z,96.81
2022-10-21T20:53:48.977Z,96.97
2022-10-21T20:56:16.463Z,97.08
2022-10-21T20:58:44.083Z,96.98
2022-10-21T21:01:23.267Z,97.11
2022-10-21T21:03:51.001Z,97.36
2022-10-21T21:06:18.795Z,97.03
2022-10-21T21:08:49.337Z,96.97
2022-10-21T21:11:21.335Z,96.85
2022-10-21T21:13:48.409Z,97.02
2022-10-21T21:16:18.165Z,96.91
2022-10-21T21:18:51.135Z,96.93
2022-10-21T21:21:19.606Z,96.83
2022-10-21T21:23:46.932Z,96.88
2022-10-21T21:26:19.875Z,96.99
2022-10-21T21:28:47.184Z,96.76
2022-10-21T21:31:17.976Z,96.95
2022-10-21T21:33:47.968Z,96.94
2022-10-21T21:36:16.519Z,96.93
2022-10-21T21:38:43.891Z,97.03
2022-10-21T21:41:11.545Z,96.97
2022-10-21T21:43:38.722Z,96.92
2022-10-21T21:46:05.875Z,97.10
2022-10-21T21:48:33.569Z,97.23
2022-10-21T21:51:02.119Z,96.92
2022-10-21T21:53:29.344Z,97.13
2022-10-21T21:55:59.764Z,97.28
2022-10-21T21:58:29.821Z,97.13
2022-10-21T22:00:56.722Z,97.20
2022-10-21T22:03:23.989Z,97.28
2022-10-21T22:05:50.728Z,97.54
2022-10-21T22:08:17.431Z,97.21
2022-10-21T22:10:44.178Z,97.54
2022-10-21T22:13:12.865Z,97.39
2022-10-21T22:15:48.446Z,97.53
2022-10-21T22:18:15.640Z,97.52
2022-10-21T22:20:42.565Z,97.56
2022-10-21T22:23:09.579Z,97.66
2022-10-21T22:25:36.434Z,97.62
2022-10-21T22:28:03.541Z,97.72
2022-10-21T22:30:30.375Z,97.63
2022-10-21T22:32:57.203Z,97.55
2022-10-21T22:35:24.164Z,97.68
2022-10-21T22:37:50.970Z,97.77
2022-10-21T22:40:17.873Z,97.80
2022-10-21T22:45:11.617Z,97.92
2022-10-21T22:47:38.721Z,97.91
2022-10-21T22:50:06.162Z,98.00
2022-10-21T22:52:33.062Z,97.96
2022-10-21T22:54:59.842Z,98.01
2022-10-21T22:57:26.687Z,97.97
2022-10-21T22:59:53.719Z,98.01
2022-10-21T23:02:20.702Z,98.02
2022-10-21T23:04:47.463Z,98.09
2022-10-21T23:07:14.281Z,98.24
2022-10-21T23:09:41.054Z,98.12
2022-10-21T23:12:07.969Z,98.15
2022-10-21T23:14:35.231Z,98.23
2022-10-21T23:17:02.108Z,98.25
2022-10-21T23:19:29.026Z,97.88
2022-10-21T23:21:55.847Z,98.20
2022-10-21T23:24:22.716Z,98.11
2022-10-21T23:26:49.580Z,98.09
2022-10-21T23:29:16.434Z,97.93
2022-10-21T23:31:43.305Z,98.08
2022-10-21T23:34:10.210Z,98.21
2022-10-21T23:36:37.343Z,97.67
2022-10-21T23:39:05.068Z,97.91
2022-10-21T23:41:32.012Z,97.79
2022-10-21T23:43:58.777Z,97.85
2022-10-21T23:48:57.434Z,97.92
2022-10-21T23:51:24.377Z,98.15
2022-10-21T23:53:51.368Z,97.95
2022-10-21T23:56:18.371Z,98.02
2022-10-21T23:58:45.214Z,97.92
